Time;durP1;ratioP1;P1;durP2;ratioP2;P2;SDS_P1;SDS_P2;PMS_P1;PMS_P2;Temp;Humidity;BMP_temperature;BMP_pressure;BME280_temperature;BME280_humidity;BME280_pressure;Samples;Min_cycle;Max_cycle;Signal;HPM_P1;HPM_P2
2021/10/23 00:00:42;;;;;;;6.88;1.73;;;10.10;99.90;;;;;;5054475;28;20064;-87
2021/10/23 00:03:08;;;;;;;5.45;1.50;;;10.20;99.90;;;;;;5054641;28;20411;-87
2021/10/23 00:05:35;;;;;;;6.78;1.92;;;10.20;99.90;;;;;;5054673;28;20508;-87
2021/10/23 00:08:01;;;;;;;10.32;1.77;;;10.20;99.90;;;;;;5054533;28;20039;-86
2021/10/23 00:10:27;;;;;;;5.95;1.80;;;10.30;99.90;;;;;;5054476;28;20112;-87
2021/10/23 00:12:52;;;;;;;5.35;1.90;;;10.20;99.90;;;;;;5054515;28;20024;-87
2021/10/23 00:15:18;;;;;;;3.38;1.38;;;10.10;99.90;;;;;;5054421;28;20029;-87
2021/10/23 00:17:44;;;;;;;5.75;1.52;;;10.20;99.90;;;;;;5054402;28;20112;-87
2021/10/23 00:20:11;;;;;;;6.65;1.70;;;10.10;99.90;;;;;;5055619;28;20448;-87
2021/10/23 00:22:37;;;;;;;6.47;1.70;;;10.00;99.90;;;;;;5054777;28;20040;-87
2021/10/23 00:25:04;;;;;;;8.45;2.10;;;9.90;99.90;;;;;;5054220;28;20029;-87
2021/10/23 00:27:31;;;;;;;6.80;1.70;;;9.70;99.90;;;;;;5055339;28;20033;-87
2021/10/23 00:29:59;;;;;;;5.35;1.80;;;9.70;99.90;;;;;;5054201;28;20053;-86
2021/10/23 00:32:25;;;;;;;6.75;1.75;;;9.70;99.90;;;;;;5055519;28;20078;-87
2021/10/23 00:34:52;;;;;;;4.32;1.45;;;9.80;99.90;;;;;;5054052;28;20017;-87
2021/10/23 00:37:18;;;;;;;3.38;1.60;;;9.50;99.90;;;;;;5054031;28;20027;-87
2021/10/23 00:39:45;;;;;;;10.13;2.05;;;9.50;99.90;;;;;;5054113;28;20591;-87
2021/10/23 00:42:10;;;;;;;7.25;1.70;;;9.40;99.90;;;;;;5053939;28;20036;-87
2021/10/23 00:44:41;;;;;;;9.13;1.80;;;9.40;99.90;;;;;;5053781;28;20396;-87
2021/10/23 00:47:06;;;;;;;6.40;1.40;;;9.20;99.90;;;;;;5053845;28;20115;-87
2021/10/23 00:49:34;;;;;;;6.57;2.08;;;9.20;99.90;;;;;;5053696;28;20104;-87
2021/10/23 00:52:02;;;;;;;7.20;1.92;;;9.30;99.90;;;;;;5055027;28;20028;-87
2021/10/23 00:54:29;;;;;;;9.57;1.80;;;9.30;99.90;;;;;;5053758;28;20385;-86
2021/10/23 00:56:56;;;;;;;6.97;2.17;;;9.20;99.90;;;;;;5053818;28;20025;-86
2021/10/23 00:59:22;;;;;;;4.85;1.70;;;9.40;99.90;;;;;;5053516;28;20065;-87
2021/10/23 01:01:49;;;;;;;10.18;2.03;;;9.20;99.90;;;;;;5053659;28;20025;-86
2021/10/23 01:04:15;;;;;;;5.50;1.90;;;9.20;99.90;;;;;;5053391;28;20028;-86
2021/10/23 01:06:41;;;;;;;5.13;1.60;;;9.30;99.90;;;;;;5053348;28;20511;-87
2021/10/23 01:09:07;;;;;;;5.13;1.40;;;9.40;99.90;;;;;;5053252;28;20053;-87
2021/10/23 01:11:33;;;;;;;5.72;2.00;;;9.70;99.90;;;;;;5053414;28;20428;-86
2021/10/23 01:13:59;;;;;;;5.53;1.50;;;9.80;99.90;;;;;;5053289;28;20503;-87
2021/10/23 01:16:25;;;;;;;8.77;1.63;;;10.00;99.90;;;;;;5053222;28;20021;-86
2021/10/23 01:18:51;;;;;;;9.75;1.80;;;10.10;99.90;;;;;;5053248;28;20084;-87
2021/10/23 01:21:21;;;;;;;5.35;1.58;;;10.10;99.90;;;;;;5053125;28;20120;-86
2021/10/23 01:23:47;;;;;;;6.05;1.55;;;10.00;99.90;;;;;;5053124;28;20032;-87
2021/10/23 01:26:13;;;;;;;9.60;1.48;;;10.20;99.90;;;;;;5054416;28;20033;-86
2021/10/23 01:28:39;;;;;;;8.32;1.77;;;10.10;99.90;;;;;;5052980;28;20032;-86
2021/10/23 01:31:05;;;;;;;5.22;1.70;;;10.00;99.90;;;;;;5053020;28;20504;-87
2021/10/23 01:33:30;;;;;;;6.00;1.50;;;10.00;99.90;;;;;;5052927;28;20021;-87
2021/10/23 01:36:11;;;;;;;7.18;1.60;;;9.80;99.90;;;;;;5052865;28;20021;-87
2021/10/23 01:38:37;;;;;;;9.23;1.60;;;9.70;99.90;;;;;;5052835;28;20392;-87
2021/10/23 01:41:05;;;;;;;5.72;1.30;;;9.70;99.90;;;;;;5052811;28;20021;-86
2021/10/23 01:43:31;;;;;;;6.38;1.55;;;10.10;99.90;;;;;;5052666;28;20507;-87
2021/10/23 01:45:57;;;;;;;4.57;1.42;;;9.90;99.90;;;;;;5052757;28;20507;-87
2021/10/23 01:48:24;;;;;;;7.82;1.75;;;9.90;99.90;;;;;;5052617;28;20017;-87
2021/10/23 01:50:49;;;;;;;7.78;1.42;;;9.90;99.90;;;;;;5052505;28;20507;-87
2021/10/23 01:53:15;;;;;;;4.50;1.40;;;10.10;99.90;;;;;;5053127;28;20025;-87
2021/10/23 01:55:41;;;;;;;9.63;1.88;;;10.10;99.90;;;;;;5052480;28;20045;-87
2021/10/23 01:58:08;;;;;;;5.50;1.50;;;10.00;99.90;;;;;;5052526;28;20028;-87
2021/10/23 02:00:34;;;;;;;6.55;1.80;;;10.00;99.90;;;;;;5052300;28;20141;-86
2021/10/23 02:02:59;;;;;;;6.90;1.73;;;10.00;99.90;;;;;;5051922;28;20064;-87
2021/10/23 02:05:25;;;;;;;6.13;1.67;;;10.10;99.90;;;;;;5052380;28;20032;-87
2021/10/23 02:07:51;;;;;;;4.10;1.48;;;10.00;99.90;;;;;;5052462;28;20532;-87
2021/10/23 02:10:17;;;;;;;5.65;1.20;;;9.90;99.90;;;;;;5052307;28;20029;-87
2021/10/23 02:12:43;;;;;;;9.13;1.75;;;9.90;99.90;;;;;;5052259;28;20082;-87
2021/10/23 02:15:09;;;;;;;8.63;1.70;;;10.10;99.90;;;;;;5052296;28;20473;-87
2021/10/23 02:17:35;;;;;;;6.95;1.70;;;10.10;99.90;;;;;;5052147;28;20504;-87
2021/10/23 02:20:03;;;;;;;8.50;1.50;;;10.10;99.90;;;;;;5052148;28;20052;-87
2021/10/23 02:22:29;;;;;;;6.97;1.55;;;9.90;99.90;;;;;;5052114;28;20496;-87
2021/10/23 02:24:55;;;;;;;3.92;1.23;;;9.70;99.90;;;;;;5052032;28;20021;-86
2021/10/23 02:27:21;;;;;;;4.72;1.83;;;9.60;99.90;;;;;;5052172;28;20036;-87
2021/10/23 02:29:46;;;;;;;3.83;1.58;;;9.40;99.90;;;;;;5051872;28;20033;-87
2021/10/23 02:32:13;;;;;;;4.57;1.35;;;9.40;99.90;;;;;;5051894;28;20116;-87
2021/10/23 02:34:38;;;;;;;4.55;1.55;;;9.60;99.90;;;;;;5051877;28;20025;-86
2021/10/23 02:37:04;;;;;;;3.50;1.10;;;10.00;99.90;;;;;;5051924;28;20028;-87
2021/10/23 02:39:30;;;;;;;3.00;1.23;;;10.00;99.90;;;;;;5051831;28;20065;-86
2021/10/23 02:41:56;;;;;;;9.65;1.60;;;10.00;99.90;;;;;;5051841;28;20025;-87
2021/10/23 02:44:22;;;;;;;3.40;1.20;;;9.80;99.90;;;;;;5052089;28;20028;-87
2021/10/23 02:46:47;;;;;;;7.28;1.38;;;9.60;99.90;;;;;;5051754;28;20025;-87
2021/10/23 02:49:13;;;;;;;6.85;1.60;;;9.50;99.90;;;;;;5052915;28;20362;-86
2021/10/23 02:51:39;;;;;;;6.72;1.55;;;9.60;99.90;;;;;;5053056;28;20036;-86
2021/10/23 02:54:05;;;;;;;7.70;1.30;;;9.70;99.90;;;;;;5051836;28;20119;-87
2021/10/23 02:56:31;;;;;;;7.35;1.65;;;9.50;99.90;;;;;;5051637;28;20063;-87
2021/10/23 02:58:57;;;;;;;11.68;1.88;;;9.30;99.90;;;;;;5051584;28;20067;-87
2021/10/23 03:01:22;;;;;;;9.38;1.67;;;9.20;99.90;;;;;;5051650;28;20500;-87
2021/10/23 03:03:48;;;;;;;7.55;1.77;;;9.20;99.90;;;;;;5051793;28;20025;-87
2021/10/23 03:06:17;;;;;;;6.97;1.40;;;9.40;99.90;;;;;;5052079;28;20026;-87
2021/10/23 03:08:43;;;;;;;6.80;1.58;;;9.50;99.90;;;;;;5052447;28;20399;-86
2021/10/23 03:11:09;;;;;;;4.13;1.15;;;9.70;99.90;;;;;;5052244;28;20116;-87
2021/10/23 03:13:35;;;;;;;7.07;1.70;;;9.80;99.90;;;;;;5052545;28;20393;-87
2021/10/23 03:16:00;;;;;;;6.25;1.60;;;10.00;99.90;;;;;;5055789;28;20503;-87
2021/10/23 03:18:26;;;;;;;5.90;1.50;;;10.00;99.90;;;;;;5055670;28;20032;-87
2021/10/23 03:20:54;;;;;;;5.32;1.30;;;10.10;99.90;;;;;;5055539;28;20116;-86
2021/10/23 03:23:20;;;;;;;6.63;1.58;;;10.10;99.90;;;;;;5055514;28;20033;-86
2021/10/23 03:25:46;;;;;;;4.55;1.40;;;10.20;99.90;;;;;;5055534;28;20061;-87
2021/10/23 03:28:13;;;;;;;4.70;0.95;;;10.20;99.90;;;;;;5055345;28;20063;-87
2021/10/23 03:30:39;;;;;;;5.30;1.40;;;10.20;99.90;;;;;;5055305;28;20029;-86
2021/10/23 03:33:05;;;;;;;7.60;1.25;;;10.20;99.90;;;;;;5055267;28;20039;-87
2021/10/23 03:35:31;;;;;;;8.10;1.73;;;10.20;99.90;;;;;;5055163;28;20021;-87
2021/10/23 03:38:00;;;;;;;6.47;1.50;;;10.10;99.90;;;;;;5055263;28;20508;-87
2021/10/23 03:40:25;;;;;;;5.00;1.60;;;10.20;99.90;;;;;;5055078;28;20025;-87
2021/10/23 03:42:51;;;;;;;2.75;1.13;;;10.10;99.90;;;;;;5055063;28;20086;-87
2021/10/23 03:45:17;;;;;;;5.28;1.48;;;10.20;99.90;;;;;;5054976;28;20033;-87
2021/10/23 03:47:43;;;;;;;5.80;1.40;;;10.00;99.90;;;;;;5054902;28;20029;-87
2021/10/23 03:50:09;;;;;;;6.32;1.33;;;10.10;99.90;;;;;;5054790;28;20025;-86
2021/10/23 03:52:36;;;;;;;6.97;1.67;;;10.10;99.90;;;;;;5055014;28;20021;-86
2021/10/23 03:55:03;;;;;;;7.28;1.45;;;10.10;99.90;;;;;;5054878;28;20021;-86
2021/10/23 03:57:29;;;;;;;8.40;1.50;;;9.90;99.90;;;;;;5055108;28;20017;-86
2021/10/23 03:59:55;;;;;;;7.68;1.65;;;10.00;99.90;;;;;;5067792;28;20403;-87
2021/10/23 04:02:20;;;;;;;7.22;1.60;;;9.90;99.90;;;;;;5057939;28;20028;-87
2021/10/23 04:04:49;;;;;;;7.57;1.52;;;10.00;99.90;;;;;;5057885;28;20070;-86
2021/10/23 04:07:14;;;;;;;6.47;1.63;;;10.00;99.90;;;;;;5058151;28;20028;-86
2021/10/23 04:09:40;;;;;;;5.65;1.38;;;10.00;99.90;;;;;;5057887;28;20020;-86
2021/10/23 04:12:06;;;;;;;4.22;1.40;;;10.00;99.90;;;;;;5057820;28;20025;-86
2021/10/23 04:14:32;;;;;;;5.15;1.40;;;10.00;99.90;;;;;;5057806;28;20020;-86
2021/10/23 04:16:58;;;;;;;5.97;1.30;;;10.00;99.90;;;;;;5057584;28;20127;-86
2021/10/23 04:19:24;;;;;;;6.03;1.40;;;9.90;99.90;;;;;;5057893;28;20032;-87
2021/10/23 04:21:50;;;;;;;3.50;1.38;;;9.80;99.90;;;;;;5057638;28;20032;-87
2021/10/23 04:24:16;;;;;;;7.90;1.60;;;9.90;99.90;;;;;;5057117;28;20108;-86
2021/10/23 04:26:41;;;;;;;7.28;1.70;;;9.90;99.90;;;;;;5075479;28;20142;-87
2021/10/23 04:29:07;;;;;;;4.97;1.20;;;10.00;99.90;;;;;;5057512;28;20365;-86
2021/10/23 04:31:33;;;;;;;6.55;1.42;;;10.10;99.90;;;;;;5057651;28;20051;-87
2021/10/23 04:34:01;;;;;;;4.10;1.33;;;10.10;99.90;;;;;;5057542;28;20025;-86
2021/10/23 04:36:27;;;;;;;7.47;1.55;;;10.10;99.90;;;;;;5057505;28;20025;-86
2021/10/23 04:38:52;;;;;;;8.00;1.50;;;10.00;99.90;;;;;;5057411;28;20032;-86
2021/10/23 04:41:18;;;;;;;6.80;1.10;;;10.10;99.90;;;;;;5057310;28;20392;-87
2021/10/23 04:43:44;;;;;;;3.58;1.08;;;10.10;99.90;;;;;;5057048;28;20039;-86
2021/10/23 04:46:10;;;;;;;6.68;1.80;;;10.10;99.90;;;;;;5057185;28;20039;-86
2021/10/23 04:48:36;;;;;;;5.60;1.33;;;10.10;99.90;;;;;;5057113;28;20031;-87
2021/10/23 04:51:03;;;;;;;4.63;1.30;;;10.00;99.90;;;;;;5057125;28;20021;-86
2021/10/23 04:53:29;;;;;;;4.65;1.30;;;9.90;99.90;;;;;;5057053;28;20027;-87
2021/10/23 04:55:55;;;;;;;5.78;1.30;;;10.00;99.90;;;;;;5057232;28;20108;-87
2021/10/23 04:58:20;;;;;;;6.30;1.30;;;9.90;99.90;;;;;;5056989;28;20048;-86
2021/10/23 05:00:46;;;;;;;5.10;1.30;;;9.70;99.90;;;;;;5056750;28;20049;-86
2021/10/23 05:03:12;;;;;;;5.00;1.20;;;9.60;99.90;;;;;;5056871;28;20090;-87
2021/10/23 05:05:37;;;;;;;8.43;1.50;;;9.50;99.90;;;;;;5057180;28;20024;-86
2021/10/23 05:08:04;;;;;;;7.75;1.90;;;9.40;99.90;;;;;;5056808;28;20021;-86
2021/10/23 05:10:29;;;;;;;6.28;1.45;;;9.20;99.90;;;;;;5056830;28;20559;-87
2021/10/23 05:12:55;;;;;;;6.38;1.50;;;9.00;99.90;;;;;;5057041;28;20044;-86
2021/10/23 05:15:21;;;;;;;3.67;1.50;;;9.10;99.90;;;;;;5056797;28;20070;-86
2021/10/23 05:17:47;;;;;;;1.95;1.08;;;9.00;99.90;;;;;;5056725;28;20024;-86
2021/10/23 05:20:13;;;;;;;5.70;1.58;;;8.90;99.90;;;;;;5057254;28;20093;-86
2021/10/23 05:22:39;;;;;;;5.57;1.70;;;9.00;99.90;;;;;;5056985;28;20029;-86
2021/10/23 05:25:05;;;;;;;11.23;1.75;;;8.90;99.90;;;;;;5056598;28;20552;-87
2021/10/23 05:27:32;;;;;;;6.20;1.52;;;8.80;99.90;;;;;;5056529;28;20025;-86
2021/10/23 05:30:01;;;;;;;9.55;2.05;;;8.80;99.90;;;;;;5056458;28;20081;-86
2021/10/23 05:32:27;;;;;;;2.10;1.20;;;8.90;99.90;;;;;;5056410;28;20476;-86
2021/10/23 05:34:52;;;;;;;6.95;2.55;;;9.00;99.90;;;;;;5056397;28;20111;-87
2021/10/23 05:37:18;;;;;;;6.38;2.13;;;9.10;99.90;;;;;;5055490;28;20111;-87
2021/10/23 05:39:44;;;;;;;6.25;2.13;;;9.20;99.90;;;;;;5056532;28;20028;-87
2021/10/23 05:42:10;;;;;;;5.47;2.05;;;9.10;99.90;;;;;;5056345;28;20032;-86
2021/10/23 05:44:35;;;;;;;5.13;2.28;;;9.20;99.90;;;;;;5056173;28;20056;-86
2021/10/23 05:47:01;;;;;;;7.53;1.95;;;9.00;99.90;;;;;;5056056;28;20025;-86
2021/10/23 05:49:27;;;;;;;9.15;1.98;;;8.90;99.90;;;;;;5056118;28;20032;-87
2021/10/23 05:51:54;;;;;;;6.00;2.00;;;8.90;99.90;;;;;;5055976;28;20416;-86
2021/10/23 05:54:20;;;;;;;4.82;1.85;;;9.00;99.90;;;;;;5055842;28;20054;-87
2021/10/23 05:56:47;;;;;;;5.38;1.73;;;8.90;99.90;;;;;;5055655;28;20020;-87
2021/10/23 05:59:14;;;;;;;5.20;1.63;;;8.80;99.90;;;;;;5055539;28;20049;-87
2021/10/23 06:01:44;;;;;;;6.07;1.77;;;9.20;99.90;;;;;;5055700;28;20032;-86
2021/10/23 06:04:10;;;;;;;6.18;2.20;;;9.40;99.90;;;;;;5055732;28;20067;-86
2021/10/23 06:06:37;;;;;;;4.25;1.50;;;9.60;99.90;;;;;;5055621;28;20119;-86
2021/10/23 06:09:04;;;;;;;5.25;1.63;;;9.70;99.90;;;;;;5055571;28;20051;-87
2021/10/23 06:11:30;;;;;;;4.43;1.70;;;9.70;99.90;;;;;;5055665;28;20094;-86
2021/10/23 06:13:58;;;;;;;5.25;1.67;;;9.80;99.90;;;;;;5055632;28;20021;-86
2021/10/23 06:16:24;;;;;;;5.57;1.63;;;9.90;99.90;;;;;;5055672;28;20115;-86
2021/10/23 06:18:50;;;;;;;7.63;1.98;;;9.70;99.90;;;;;;5055356;28;20028;-86
2021/10/23 06:21:16;;;;;;;5.13;1.75;;;9.70;99.90;;;;;;5055523;28;20025;-87
2021/10/23 06:23:42;;;;;;;9.25;1.88;;;9.70;99.90;;;;;;5055249;28;20031;-88
2021/10/23 06:26:08;;;;;;;6.07;1.77;;;9.60;99.90;;;;;;5055326;28;20115;-87
2021/10/23 06:28:36;;;;;;;8.50;2.10;;;9.70;99.90;;;;;;5055144;28;20387;-87
2021/10/23 06:31:03;;;;;;;7.13;1.92;;;9.90;99.90;;;;;;5055033;28;20036;-87
2021/10/23 06:33:29;;;;;;;13.48;2.28;;;10.00;99.90;;;;;;5055286;28;20023;-87
2021/10/23 06:35:55;;;;;;;6.45;1.65;;;10.00;99.90;;;;;;5055279;28;20029;-87
2021/10/23 06:38:21;;;;;;;8.40;2.50;;;9.90;99.90;;;;;;5055124;28;20028;-87
2021/10/23 06:40:53;;;;;;;7.22;1.75;;;9.60;99.90;;;;;;5055105;28;20039;-87
2021/10/23 06:43:19;;;;;;;9.85;2.38;;;9.60;99.90;;;;;;5055667;28;20034;-87
2021/10/23 06:45:45;;;;;;;8.00;1.90;;;9.70;99.90;;;;;;5055309;28;20032;-87
2021/10/23 06:48:11;;;;;;;9.02;2.53;;;9.50;99.90;;;;;;5055019;28;20052;-87
2021/10/23 06:50:38;;;;;;;9.07;2.45;;;9.60;99.90;;;;;;5055245;28;20034;-87
2021/10/23 06:53:03;;;;;;;5.28;2.30;;;9.50;99.90;;;;;;5055617;28;20024;-86
2021/10/23 06:55:29;;;;;;;8.27;2.45;;;9.50;99.90;;;;;;5055019;28;20032;-87
2021/10/23 06:57:55;;;;;;;8.27;2.28;;;9.60;99.90;;;;;;5055231;28;20476;-87
2021/10/23 07:00:21;;;;;;;8.88;2.17;;;9.70;99.90;;;;;;5051444;28;20049;-87
2021/10/23 07:02:47;;;;;;;8.52;2.20;;;9.80;99.90;;;;;;5051650;28;20029;-87
2021/10/23 07:05:15;;;;;;;8.98;2.10;;;9.70;99.90;;;;;;5051491;28;20369;-87
2021/10/23 07:07:41;;;;;;;11.10;4.72;;;9.80;99.90;;;;;;5051476;28;20025;-87
2021/10/23 07:10:08;;;;;;;7.85;2.58;;;9.70;99.90;;;;;;5051453;28;20047;-87
2021/10/23 07:12:34;;;;;;;5.90;2.30;;;9.70;99.90;;;;;;5051527;28;20025;-87
2021/10/23 07:15:00;;;;;;;10.13;2.53;;;9.70;99.90;;;;;;5051420;28;20025;-87
2021/10/23 07:17:26;;;;;;;6.07;2.20;;;9.60;99.90;;;;;;5051733;28;20021;-87
2021/10/23 07:19:52;;;;;;;6.90;2.15;;;9.60;99.90;;;;;;5051485;28;20095;-87
2021/10/23 07:22:19;;;;;;;7.20;2.42;;;9.50;99.90;;;;;;5051442;28;20065;-87
2021/10/23 07:24:44;;;;;;;7.28;2.88;;;9.40;99.90;;;;;;5051637;28;20103;-88
2021/10/23 07:27:10;;;;;;;9.55;3.67;;;9.40;99.90;;;;;;5051667;28;20480;-87
2021/10/23 07:29:36;;;;;;;3.72;1.85;;;9.40;99.90;;;;;;5053026;28;20468;-87
2021/10/23 07:32:02;;;;;;;5.93;2.00;;;9.70;99.90;;;;;;5052297;28;20108;-88
2021/10/23 07:34:29;;;;;;;6.40;1.90;;;10.00;99.90;;;;;;5052111;28;20036;-87
2021/10/23 07:36:55;;;;;;;10.68;2.30;;;10.10;99.90;;;;;;5052352;28;20061;-87
2021/10/23 07:39:21;;;;;;;9.73;2.80;;;10.10;99.90;;;;;;5053421;28;20029;-87
2021/10/23 07:41:47;;;;;;;8.00;2.35;;;10.00;99.90;;;;;;5051985;28;20048;-87
2021/10/23 07:44:13;;;;;;;6.80;2.22;;;10.00;99.90;;;;;;5051269;28;20095;-87
2021/10/23 07:46:39;;;;;;;7.82;2.42;;;10.10;99.90;;;;;;5051700;28;20032;-88
2021/10/23 07:49:08;;;;;;;8.35;2.72;;;10.20;99.90;;;;;;5052394;28;20079;-87
2021/10/23 07:51:38;;;;;;;8.27;2.47;;;10.00;99.90;;;;;;5051511;28;20049;-87
2021/10/23 07:54:05;;;;;;;9.07;2.38;;;10.10;99.90;;;;;;5051748;28;20025;-87
2021/10/23 07:56:32;;;;;;;7.30;2.33;;;10.40;99.90;;;;;;5051777;28;20495;-87
2021/10/23 07:58:59;;;;;;;7.32;2.28;;;10.40;99.90;;;;;;5051383;28;20489;-87
2021/10/23 08:01:25;;;;;;;7.93;2.30;;;10.60;99.90;;;;;;5054626;28;20025;-87
2021/10/23 08:03:51;;;;;;;5.43;1.95;;;10.50;99.90;;;;;;5056535;28;20067;-88
2021/10/23 08:06:16;;;;;;;5.25;1.80;;;10.40;99.90;;;;;;5054824;28;20025;-87
2021/10/23 08:08:42;;;;;;;13.75;3.20;;;10.60;99.90;;;;;;5054815;28;20048;-87
2021/10/23 08:11:08;;;;;;;7.05;2.13;;;10.40;99.90;;;;;;5054918;28;20112;-87
2021/10/23 08:13:34;;;;;;;7.07;2.03;;;10.60;99.90;;;;;;5054845;28;20396;-87
2021/10/23 08:16:01;;;;;;;5.22;1.90;;;10.40;99.90;;;;;;5056032;28;20071;-87
2021/10/23 08:18:27;;;;;;;9.55;2.60;;;10.60;99.90;;;;;;5054918;28;20423;-87
2021/10/23 08:20:54;;;;;;;7.45;2.30;;;10.70;99.90;;;;;;5054922;28;20025;-88
2021/10/23 08:23:19;;;;;;;10.18;2.60;;;10.90;99.90;;;;;;5054965;28;20028;-87
2021/10/23 08:25:50;;;;;;;8.82;2.45;;;11.20;99.90;;;;;;5054369;28;20029;-88
2021/10/23 08:28:16;;;;;;;9.85;3.88;;;11.20;99.90;;;;;;5038184;28;20033;-88
2021/10/23 08:30:42;;;;;;;8.35;2.50;;;11.20;99.90;;;;;;5054145;28;20025;-87
2021/10/23 08:33:08;;;;;;;9.25;2.40;;;11.40;99.90;;;;;;5054164;28;20603;-88
2021/10/23 08:35:37;;;;;;;8.30;2.63;;;11.40;99.90;;;;;;5054038;28;20021;-88
2021/10/23 08:38:03;;;;;;;5.35;2.00;;;11.40;99.90;;;;;;5054033;28;20503;-88
2021/10/23 08:40:29;;;;;;;10.35;2.40;;;11.60;99.90;;;;;;5054042;28;20032;-87
2021/10/23 08:42:55;;;;;;;9.20;2.38;;;11.70;99.90;;;;;;5053984;28;20592;-87
2021/10/23 08:45:21;;;;;;;7.72;2.15;;;11.50;99.90;;;;;;5053917;28;20025;-87
2021/10/23 08:47:47;;;;;;;8.80;2.38;;;11.40;99.90;;;;;;5053855;28;20032;-87
2021/10/23 08:50:19;;;;;;;6.45;2.03;;;11.60;99.90;;;;;;5053738;28;20488;-87
2021/10/23 08:52:47;;;;;;;4.20;1.88;;;12.30;99.90;;;;;;5053650;28;20025;-87
2021/10/23 08:55:13;;;;;;;6.45;1.95;;;12.70;99.90;;;;;;5053611;28;20028;-87
2021/10/23 08:57:40;;;;;;;6.47;1.73;;;13.00;99.90;;;;;;5053342;28;20404;-87
2021/10/23 09:00:07;;;;;;;6.63;2.00;;;13.40;99.90;;;;;;5053516;28;20049;-88
2021/10/23 09:02:33;;;;;;;4.78;2.00;;;13.40;99.90;;;;;;5053614;28;20028;-88
2021/10/23 09:05:00;;;;;;;6.00;2.17;;;13.40;99.90;;;;;;5053746;28;20252;-87
2021/10/23 09:07:27;;;;;;;5.25;2.10;;;13.30;99.90;;;;;;5053538;28;20025;-87
2021/10/23 09:09:56;;;;;;;7.28;2.10;;;13.30;99.90;;;;;;5053436;28;20052;-87
2021/10/23 09:12:27;;;;;;;5.65;1.80;;;13.60;99.90;;;;;;5052414;28;20021;-87
2021/10/23 09:15:10;;;;;;;5.38;1.80;;;13.80;99.90;;;;;;5053504;28;20028;-88
2021/10/23 09:17:37;;;;;;;8.55;2.03;;;13.90;99.90;;;;;;5053331;28;20028;-87
2021/10/23 09:20:13;;;;;;;8.35;1.90;;;14.30;99.90;;;;;;5053303;28;20055;-87
2021/10/23 09:22:44;;;;;;;9.18;1.80;;;14.50;99.90;;;;;;5054091;28;20048;-87
2021/10/23 09:25:29;;;;;;;5.90;1.77;;;14.50;99.90;;;;;;5053267;28;20040;-87
2021/10/23 09:28:00;;;;;;;6.57;2.10;;;14.70;99.90;;;;;;5053340;28;20545;-88
2021/10/23 09:30:38;;;;;;;6.90;1.67;;;14.70;99.90;;;;;;5053488;28;20119;-87
2021/10/23 09:33:20;;;;;;;3.83;1.48;;;15.00;99.90;;;;;;5053172;28;20385;-88
2021/10/23 09:35:51;;;;;;;9.52;1.83;;;14.50;99.90;;;;;;5053508;28;20454;-87
2021/10/23 09:38:30;;;;;;;6.00;1.75;;;14.70;99.90;;;;;;5053546;28;20110;-86
2021/10/23 09:41:09;;;;;;;6.60;1.77;;;14.80;99.90;;;;;;5053106;28;20082;-86
2021/10/23 09:43:34;;;;;;;6.97;1.95;;;15.20;99.90;;;;;;5053073;28;20027;-88
2021/10/23 09:46:10;;;;;;;4.95;1.42;;;15.10;99.90;;;;;;5052894;28;20493;-88
2021/10/23 09:48:38;;;;;;;5.45;1.88;;;15.10;99.90;;;;;;5052850;28;20469;-87
2021/10/23 09:51:29;;;;;;;5.53;1.73;;;15.00;99.90;;;;;;5052741;28;20036;-88
2021/10/23 09:54:02;;;;;;;7.20;1.50;;;15.10;99.90;;;;;;5053035;28;20071;-87
2021/10/23 09:56:31;;;;;;;9.60;2.08;;;15.60;99.90;;;;;;5052576;28;20025;-88
2021/10/23 09:59:08;;;;;;;4.82;1.58;;;14.80;99.90;;;;;;5052701;28;20041;-88
2021/10/23 10:01:41;;;;;;;4.68;1.50;;;14.50;99.90;;;;;;5053466;28;20053;-88
2021/10/23 10:04:09;;;;;;;3.67;1.65;;;15.00;99.90;;;;;;5052664;28;20017;-87
2021/10/23 10:06:38;;;;;;;9.05;1.88;;;15.40;99.90;;;;;;5052641;28;20049;-87
2021/10/23 10:09:06;;;;;;;13.07;1.70;;;15.60;99.90;;;;;;5052510;28;20112;-88
2021/10/23 10:11:33;;;;;;;3.10;1.27;;;16.00;99.90;;;;;;5053859;28;20477;-87
2021/10/23 10:13:59;;;;;;;6.45;1.75;;;16.30;99.90;;;;;;5052367;28;20472;-88
2021/10/23 10:16:29;;;;;;;3.50;1.40;;;16.10;99.90;;;;;;5052473;28;20139;-87
2021/10/23 10:18:55;;;;;;;6.45;1.65;;;15.50;99.90;;;;;;5052289;28;20021;-89
2021/10/23 10:21:22;;;;;;;6.45;1.27;;;14.80;99.90;;;;;;5052488;28;20021;-89
2021/10/23 10:23:51;;;;;;;7.65;1.23;;;15.20;99.90;;;;;;5051960;28;20117;-89
2021/10/23 10:26:31;;;;;;;4.70;1.50;;;16.10;99.90;;;;;;5052308;28;20075;-89
2021/10/23 10:29:10;;;;;;;3.67;1.25;;;16.70;99.90;;;;;;5052215;28;20072;-89
2021/10/23 10:31:59;;;;;;;5.05;1.10;;;17.10;99.90;;;;;;5053355;28;20017;-89
2021/10/23 10:43:06;;;;;;;3.80;1.17;;;18.30;99.90;;;;;;5053251;28;20036;-89
2021/10/23 10:45:55;;;;;;;4.53;1.20;;;18.40;99.90;;;;;;5052001;28;20036;-89
2021/10/23 10:48:29;;;;;;;5.32;1.27;;;18.50;99.90;;;;;;5051929;28;20036;-89
2021/10/23 10:50:59;;;;;;;;;;;19.20;99.90;;;;;;5052330;28;20032;-89
2021/10/23 10:53:27;;;;;;;3.95;0.70;;;19.20;98.40;;;;;;5051785;28;19912;-89
2021/10/23 10:56:03;;;;;;;2.33;0.90;;;19.00;97.70;;;;;;5051731;28;20394;-89
2021/10/23 10:58:47;;;;;;;3.38;1.10;;;19.20;98.20;;;;;;5052152;28;20021;-89
2021/10/23 11:01:23;;;;;;;2.13;0.88;;;19.30;96.90;;;;;;5055215;28;20488;-89
2021/10/23 11:03:52;;;;;;;3.53;0.93;;;19.30;96.80;;;;;;5055965;28;20081;-89
2021/10/23 11:06:45;;;;;;;4.80;1.17;;;19.40;96.40;;;;;;5054831;28;20036;-87
2021/10/23 11:09:11;;;;;;;3.50;0.68;;;19.50;94.60;;;;;;5054972;28;20031;-90
2021/10/23 11:11:46;;;;;;;4.60;0.65;;;18.60;92.50;;;;;;5055070;28;20473;-90
2021/10/23 11:14:22;;;;;;;2.33;0.70;;;19.10;92.10;;;;;;5055922;28;20059;-92
2021/10/23 11:16:54;;;;;;;5.60;0.70;;;19.60;92.10;;;;;;5055981;28;20052;-91
2021/10/23 11:19:27;;;;;;;6.88;0.93;;;20.00;90.50;;;;;;5055443;28;20051;-91
2021/10/23 11:21:55;;;;;;;3.05;0.90;;;20.40;90.40;;;;;;5055222;28;20067;-89
2021/10/23 11:24:37;;;;;;;2.85;0.90;;;20.90;90.70;;;;;;5054809;28;20492;-89
2021/10/23 11:27:03;;;;;;;3.42;1.20;;;20.80;92.00;;;;;;5055057;28;20035;-87
2021/10/23 11:29:29;;;;;;;1.42;0.80;;;20.40;92.70;;;;;;5054649;28;20029;-88
2021/10/23 11:31:56;;;;;;;5.70;1.50;;;20.40;93.10;;;;;;5054745;28;20528;-88
2021/10/23 11:34:35;;;;;;;5.63;1.40;;;19.00;93.80;;;;;;5055110;28;20361;-89
2021/10/23 11:37:05;;;;;;;5.07;1.40;;;17.70;95.20;;;;;;5060273;28;20024;-88
2021/10/23 11:39:37;;;;;;;6.97;1.20;;;16.80;96.30;;;;;;5085059;28;20027;-88
2021/10/23 11:42:28;;;;;;;6.40;1.17;;;16.10;97.50;;;;;;5061836;28;20031;-88
2021/10/23 11:45:03;;;;;;;3.90;1.48;;;15.50;99.90;;;;;;5058960;28;20028;-88
2021/10/23 11:47:30;;;;;;;;;;;15.10;99.90;;;;;;5059030;28;20035;-88
2021/10/23 11:50:05;;;;;;;7.22;1.38;;;14.90;99.90;;;;;;5058210;28;20272;-88
2021/10/23 11:52:33;;;;;;;6.13;1.77;;;14.60;99.90;;;;;;5058494;28;20111;-88
2021/10/23 11:55:03;;;;;;;10.70;1.83;;;14.30;99.90;;;;;;5058118;28;20028;-89
2021/10/23 11:57:42;;;;;;;4.35;1.15;;;14.30;99.90;;;;;;5058042;28;20055;-88
2021/10/23 12:00:16;;;;;;;4.40;1.67;;;14.50;99.90;;;;;;5058209;28;20048;-89
2021/10/23 12:02:49;;;;;;;7.00;1.60;;;14.50;99.90;;;;;;5058085;28;20028;-88
2021/10/23 12:05:25;;;;;;;5.18;1.40;;;14.50;99.90;;;;;;5076838;28;20048;-88
2021/10/23 12:08:09;;;;;;;6.22;1.90;;;14.30;99.90;;;;;;5057929;28;20056;-88
2021/10/23 12:10:57;;;;;;;6.90;1.48;;;14.00;99.90;;;;;;5057735;28;20039;-89
2021/10/23 12:13:24;;;;;;;5.13;1.38;;;14.10;99.90;;;;;;5057973;28;20047;-89
2021/10/23 12:16:06;;;;;;;4.97;1.70;;;14.40;99.90;;;;;;5057749;28;20020;-89
2021/10/23 12:18:37;;;;;;;5.95;1.50;;;14.30;99.90;;;;;;5057682;28;20036;-88
2021/10/23 12:21:40;;;;;;;4.35;1.30;;;16.00;99.90;;;;;;5057582;28;20024;-89
2021/10/23 12:24:22;;;;;;;6.63;1.70;;;17.00;99.60;;;;;;5033283;28;20033;-89
2021/10/23 12:27:21;;;;;;;6.75;1.38;;;16.70;99.90;;;;;;5057934;28;20024;-88
2021/10/23 12:29:59;;;;;;;5.80;1.50;;;15.90;99.90;;;;;;5031143;28;20435;-89
2021/10/23 12:32:44;;;;;;;5.95;1.45;;;15.40;99.90;;;;;;5057562;28;20369;-89
2021/10/23 12:35:30;;;;;;;7.40;1.55;;;15.00;99.90;;;;;;5057357;28;20135;-88
2021/10/23 12:38:08;;;;;;;4.32;1.50;;;14.40;99.90;;;;;;5075119;28;20033;-88
2021/10/23 12:40:39;;;;;;;4.93;1.50;;;14.00;99.90;;;;;;5057262;28;20052;-88
2021/10/23 12:43:12;;;;;;;4.65;1.60;;;13.70;99.90;;;;;;5057436;28;20487;-88
2021/10/23 12:45:46;;;;;;;5.95;1.98;;;13.40;99.90;;;;;;5057058;28;20071;-88
2021/10/23 12:48:15;;;;;;;5.97;1.33;;;13.40;99.90;;;;;;5057471;28;20021;-89
2021/10/23 12:50:42;;;;;;;5.68;1.42;;;13.40;99.90;;;;;;5056933;28;20552;-87
2021/10/23 12:53:08;;;;;;;5.88;1.52;;;13.30;99.90;;;;;;5056979;28;20024;-89
2021/10/23 12:55:34;;;;;;;3.80;1.58;;;13.40;99.90;;;;;;5056976;28;20111;-88
2021/10/23 12:58:00;;;;;;;4.65;1.60;;;13.40;99.90;;;;;;5057019;28;20025;-89
2021/10/23 13:00:26;;;;;;;9.93;1.50;;;13.30;99.90;;;;;;5056785;28;20174;-88
2021/10/23 13:02:52;;;;;;;5.20;1.30;;;13.30;99.90;;;;;;5056764;28;20035;-88
2021/10/23 13:05:18;;;;;;;7.18;1.40;;;13.50;99.90;;;;;;5056839;28;20492;-89